Time;durP1;ratioP1;P1;durP2;ratioP2;P2;SDS_P1;SDS_P2;PMS_P1;PMS_P2;Temp;Humidity;BMP_temperature;BMP_pressure;BME280_temperature;BME280_humidity;BME280_pressure;Samples;Min_cycle;Max_cycle;Signal;HPM_P1;HPM_P2
2022/03/12 00:00:48;;;;;;;;;;;8.90;59.20;;;;;;5086545;28;19916;-70
2022/03/12 00:03:14;;;;;;;;;;;8.90;59.40;;;;;;5084460;28;19920;-70
2022/03/12 00:06:02;;;;;;;;;;;8.80;59.50;;;;;;5071997;28;20360;-70
2022/03/12 00:08:31;;;;;;;;;;;8.80;59.10;;;;;;5081017;28;20022;-70
2022/03/12 00:10:56;;;;;;;;;;;8.80;59.40;;;;;;5083572;28;19908;-70
2022/03/12 00:13:22;;;;;;;;;;;8.80;59.50;;;;;;5070558;28;19939;-70
2022/03/12 00:15:50;;;;;;;;;;;8.80;59.30;;;;;;5086917;28;19908;-70
2022/03/12 00:18:18;;;;;;;;;;;8.70;59.50;;;;;;5081671;28;20259;-70
2022/03/12 00:20:48;;;;;;;;;;;8.70;59.30;;;;;;5085579;28;19915;-70
2022/03/12 00:23:16;;;;;;;;;;;8.70;59.70;;;;;;5073262;28;19951;-70
2022/03/12 00:25:43;;;;;;;;;;;8.70;59.50;;;;;;5082417;28;19990;-70
2022/03/12 00:28:09;;;;;;;;;;;8.70;59.40;;;;;;5067287;28;19920;-70
2022/03/12 00:30:35;;;;;;;;;;;8.70;59.50;;;;;;5083763;28;19923;-70
2022/03/12 00:33:01;;;;;;;;;;;8.70;59.40;;;;;;5082593;28;19940;-70
2022/03/12 00:35:27;;;;;;;;;;;8.60;59.00;;;;;;5083094;28;19916;-70
2022/03/12 00:37:53;;;;;;;;;;;8.70;59.40;;;;;;5085048;28;19953;-70
2022/03/12 00:40:21;;;;;;;;;;;8.70;59.60;;;;;;5083639;28;20388;-70
2022/03/12 00:42:47;;;;;;;;;;;8.60;59.30;;;;;;5082973;28;20677;-70
2022/03/12 00:45:13;;;;;;;;;;;8.60;59.30;;;;;;5065855;28;19916;-70
2022/03/12 00:47:38;;;;;;;;;;;8.60;59.40;;;;;;5086392;28;20001;-70
2022/03/12 00:50:05;;;;;;;;;;;8.60;59.30;;;;;;5084771;28;19916;-70
2022/03/12 00:52:31;;;;;;;;;;;8.60;59.40;;;;;;5090281;28;19908;-70
2022/03/12 00:54:57;;;;;;;;;;;8.60;59.40;;;;;;5066438;28;20427;-70
2022/03/12 00:57:22;;;;;;;;;;;8.60;59.40;;;;;;5084605;28;19939;-70
2022/03/12 00:59:48;;;;;;;;;;;8.60;59.50;;;;;;5083700;28;19920;-70
2022/03/12 01:02:14;;;;;;;;;;;8.60;59.60;;;;;;5066612;28;19916;-70
2022/03/12 01:04:40;;;;;;;;;;;8.50;59.50;;;;;;5085141;28;19962;-70
2022/03/12 01:07:06;;;;;;;;;;;8.50;59.50;;;;;;5083614;28;20046;-70
2022/03/12 01:09:31;;;;;;;;;;;8.50;59.30;;;;;;5080463;28;19938;-70
2022/03/12 01:11:57;;;;;;;;;;;8.50;58.80;;;;;;5083308;28;20002;-70
2022/03/12 01:14:23;;;;;;;;;;;8.50;59.20;;;;;;5086634;28;19919;-70
2022/03/12 01:16:48;;;;;;;;;;;8.50;59.60;;;;;;5074857;28;19926;-70
2022/03/12 01:19:15;;;;;;;;;;;8.50;59.60;;;;;;5086489;28;20276;-70
2022/03/12 01:21:41;;;;;;;;;;;8.40;59.50;;;;;;5082179;28;19922;-70
2022/03/12 01:24:06;;;;;;;;;;;8.40;59.50;;;;;;5083946;28;19912;-70
2022/03/12 01:26:34;;;;;;;;;;;8.40;59.60;;;;;;5067461;28;20272;-70
2022/03/12 01:29:00;;;;;;;;;;;8.40;59.60;;;;;;5064347;28;20027;-71
2022/03/12 01:31:25;;;;;;;;;;;8.40;59.60;;;;;;5080603;28;19947;-70
2022/03/12 01:33:51;;;;;;;;;;;8.40;59.70;;;;;;5085151;28;19957;-70
2022/03/12 01:36:16;;;;;;;;;;;8.40;59.90;;;;;;5067887;28;19959;-70
2022/03/12 01:38:49;;;;;;;;;;;8.30;59.80;;;;;;5080778;28;19963;-70
2022/03/12 01:41:18;;;;;;;;;;;8.30;59.60;;;;;;5082144;28;19916;-70
2022/03/12 01:43:44;;;;;;;;;;;8.30;59.60;;;;;;5075141;28;19920;-70
2022/03/12 01:46:11;;;;;;;;;;;8.30;59.60;;;;;;5066083;28;19916;-70
2022/03/12 01:48:45;;;;;;;;;;;8.30;59.60;;;;;;5080903;28;19933;-71
2022/03/12 01:51:11;;;;;;;;;;;8.30;59.70;;;;;;5084199;28;19916;-70
2022/03/12 01:53:36;;;;;;;;;;;8.30;59.80;;;;;;5080017;28;19916;-70
2022/03/12 01:56:02;;;;;;;;;;;8.30;59.70;;;;;;5083533;28;20020;-70
2022/03/12 01:58:28;;;;;;;;;;;8.30;59.70;;;;;;5082655;28;19967;-70
2022/03/12 02:00:53;;;;;;;;;;;8.20;59.60;;;;;;5080847;28;19948;-70
2022/03/12 02:03:23;;;;;;;;;;;8.20;59.80;;;;;;5082056;28;20666;-70
2022/03/12 02:05:50;;;;;;;;;;;8.20;59.70;;;;;;5083066;28;19976;-71
2022/03/12 02:08:16;;;;;;;;;;;8.20;59.80;;;;;;5057446;28;20423;-71
2022/03/12 02:10:42;;;;;;;;;;;8.20;59.90;;;;;;5080815;28;19922;-70
2022/03/12 02:13:08;;;;;;;;;;;8.20;59.90;;;;;;5081940;28;19920;-70
2022/03/12 02:15:33;;;;;;;;;;;8.20;60.00;;;;;;5083928;28;19912;-70
2022/03/12 02:17:59;;;;;;;;;;;8.10;60.00;;;;;;5079938;28;19912;-70
2022/03/12 02:20:24;;;;;;;;;;;8.10;60.00;;;;;;5081055;28;20285;-70
2022/03/12 02:22:53;;;;;;;;;;;8.10;60.00;;;;;;5085391;28;19912;-70
2022/03/12 02:25:39;;;;;;;;;;;8.10;59.80;;;;;;5080395;28;20004;-70
2022/03/12 02:28:14;;;;;;;;;;;8.10;60.10;;;;;;5084713;28;20085;-70
2022/03/12 02:30:51;;;;;;;;;;;8.10;59.90;;;;;;5081240;28;19916;-70
2022/03/12 02:33:27;;;;;;;;;;;8.10;60.00;;;;;;5081583;28;19919;-70
2022/03/12 02:35:53;;;;;;;;;;;8.10;60.00;;;;;;5079754;28;19919;-70
2022/03/12 02:38:21;;;;;;;;;;;8.10;59.90;;;;;;5063869;28;19955;-70
2022/03/12 02:40:50;;;;;;;;;;;8.10;60.00;;;;;;5084641;28;19923;-70
2022/03/12 02:43:21;;;;;;;;;;;8.00;59.90;;;;;;5083236;28;19916;-70
2022/03/12 02:45:48;;;;;;;;;;;8.00;60.00;;;;;;5068477;28;20536;-70
2022/03/12 02:48:14;;;;;;;;;;;8.00;60.00;;;;;;5085134;28;19919;-70
2022/03/12 02:50:41;;;;;;;;;;;8.00;60.10;;;;;;5067181;28;19961;-71
2022/03/12 02:53:07;;;;;;;;;;;8.00;60.20;;;;;;5085913;28;20300;-70
2022/03/12 02:55:34;;;;;;;;;;;8.00;60.20;;;;;;5068799;28;19916;-70
2022/03/12 02:58:00;;;;;;;;;;;8.00;60.20;;;;;;5082687;28;20407;-71
2022/03/12 03:00:27;;;;;;;;;;;8.00;60.40;;;;;;5080940;28;19923;-70
2022/03/12 03:02:56;;;;;;;;;;;8.00;60.10;;;;;;5081240;28;20417;-70
2022/03/12 03:05:31;;;;;;;;;;;8.00;60.90;;;;;;5079226;28;19919;-70
2022/03/12 03:07:58;;;;;;;;;;;8.00;60.10;;;;;;5082651;28;19989;-70
2022/03/12 03:10:30;;;;;;;;;;;7.90;60.10;;;;;;5074000;28;19916;-70
2022/03/12 03:12:58;;;;;;;;;;;8.00;60.10;;;;;;5079506;28;19937;-71
2022/03/12 03:15:23;;;;;;;;;;;8.00;60.20;;;;;;5078406;28;19916;-70
2022/03/12 03:17:49;;;;;;;;;;;8.00;60.30;;;;;;5083578;28;19969;-70
2022/03/12 03:20:16;;;;;;;;;;;7.90;60.30;;;;;;5068749;28;19965;-70
2022/03/12 03:22:41;;;;;;;;;;;7.90;61.00;;;;;;5066417;28;19920;-70
2022/03/12 03:25:07;;;;;;;;;;;7.90;60.20;;;;;;5082445;28;19916;-70
2022/03/12 03:27:33;;;;;;;;;;;7.90;60.50;;;;;;5081349;28;20003;-70
2022/03/12 03:29:58;;;;;;;;;;;7.90;60.60;;;;;;5082693;28;20007;-70
2022/03/12 03:32:24;;;;;;;;;;;7.90;60.70;;;;;;5078188;28;19916;-70
2022/03/12 03:34:49;;;;;;;;;;;7.90;60.60;;;;;;5083520;28;20035;-70
2022/03/12 03:37:15;;;;;;;;;;;7.80;60.50;;;;;;5083525;28;19908;-70
2022/03/12 03:39:40;;;;;;;;;;;7.80;60.70;;;;;;5085070;28;19916;-70
2022/03/12 03:42:06;;;;;;;;;;;7.80;60.70;;;;;;5082043;28;19912;-70
2022/03/12 03:44:31;;;;;;;;;;;7.80;60.80;;;;;;5082036;28;19920;-70
2022/03/12 03:46:57;;;;;;;;;;;7.80;60.90;;;;;;5066641;28;20478;-69
2022/03/12 03:49:24;;;;;;;;;;;7.80;60.80;;;;;;5086087;28;20483;-70
2022/03/12 03:51:50;;;;;;;;;;;7.80;60.90;;;;;;5083271;28;19912;-70
2022/03/12 03:54:16;;;;;;;;;;;7.80;60.80;;;;;;5084976;28;20422;-70
2022/03/12 03:56:42;;;;;;;;;;;7.70;60.80;;;;;;5084605;28;20364;-70
2022/03/12 03:59:07;;;;;;;;;;;7.70;60.80;;;;;;5080302;28;19916;-70
2022/03/12 04:01:39;;;;;;;;;;;7.70;60.90;;;;;;5085656;28;19908;-70
2022/03/12 04:04:05;;;;;;;;;;;7.70;60.90;;;;;;5082285;28;20036;-70
2022/03/12 04:06:30;;;;;;;;;;;7.70;60.80;;;;;;5084363;28;19961;-70
2022/03/12 04:08:56;;;;;;;;;;;7.70;60.90;;;;;;5082971;28;19919;-70
2022/03/12 04:11:23;;;;;;;;;;;7.70;60.80;;;;;;5087320;28;19919;-70
2022/03/12 04:13:49;;;;;;;;;;;7.70;60.80;;;;;;5069243;28;20423;-70
2022/03/12 04:16:16;;;;;;;;;;;7.70;60.90;;;;;;5086004;28;19912;-70
2022/03/12 04:18:45;;;;;;;;;;;7.70;60.80;;;;;;5082396;28;20007;-70
2022/03/12 04:21:10;;;;;;;;;;;7.70;60.70;;;;;;5085398;28;19974;-70
2022/03/12 04:23:36;;;;;;;;;;;7.70;60.80;;;;;;5082484;28;20005;-70
2022/03/12 04:26:02;;;;;;;;;;;7.60;60.80;;;;;;5083755;28;19961;-71
2022/03/12 04:28:30;;;;;;;;;;;7.70;60.80;;;;;;5083084;28;19939;-70
2022/03/12 04:30:56;;;;;;;;;;;7.70;60.90;;;;;;5072109;28;19919;-70
2022/03/12 04:33:21;;;;;;;;;;;7.60;60.80;;;;;;5083308;28;20308;-70
2022/03/12 04:35:48;;;;;;;;;;;7.60;60.90;;;;;;5086330;28;20031;-70
2022/03/12 04:38:14;;;;;;;;;;;7.60;60.80;;;;;;5084616;28;19908;-70
2022/03/12 04:40:43;;;;;;;;;;;7.60;60.70;;;;;;5064620;28;20620;-69
2022/03/12 04:43:09;;;;;;;;;;;7.60;60.80;;;;;;5084227;28;19920;-70
2022/03/12 04:45:34;;;;;;;;;;;7.60;60.80;;;;;;5084454;28;20645;-70
2022/03/12 04:48:00;;;;;;;;;;;7.60;60.80;;;;;;5069909;28;19968;-69
2022/03/12 04:50:25;;;;;;;;;;;7.60;60.80;;;;;;5065760;28;20045;-70
2022/03/12 04:52:53;;;;;;;;;;;7.60;60.80;;;;;;5084575;28;19915;-70
2022/03/12 04:55:20;;;;;;;;;;;7.60;60.90;;;;;;5082946;28;20023;-70
2022/03/12 04:57:46;;;;;;;;;;;7.60;60.90;;;;;;5086932;28;20038;-70
2022/03/12 05:00:30;;;;;;;;;;;7.60;60.90;;;;;;5082575;28;19964;-70
2022/03/12 05:03:01;;;;;;;;;;;7.60;61.60;;;;;;5081192;28;20279;-70
2022/03/12 05:05:26;;;;;;;;;;;7.60;61.00;;;;;;5080990;28;19995;-69
2022/03/12 05:07:52;;;;;;;;;;;7.60;60.90;;;;;;5086671;28;19995;-69
2022/03/12 05:10:18;;;;;;;;;;;7.60;61.00;;;;;;5068130;28;19926;-70
2022/03/12 05:12:45;;;;;;;;;;;7.60;61.20;;;;;;5085579;28;20402;-70
2022/03/12 05:15:14;;;;;;;;;;;7.60;61.00;;;;;;5081887;28;19916;-70
2022/03/12 05:17:41;;;;;;;;;;;7.60;61.10;;;;;;5082910;28;19912;-70
2022/03/12 05:20:09;;;;;;;;;;;7.60;61.10;;;;;;5083583;28;20429;-70
2022/03/12 05:22:34;;;;;;;;;;;7.60;61.00;;;;;;5071321;28;20490;-70
2022/03/12 05:25:00;;;;;;;;;;;7.50;61.00;;;;;;5085094;28;19908;-70
2022/03/12 05:27:26;;;;;;;;;;;7.60;61.20;;;;;;5082595;28;19912;-69
2022/03/12 05:29:52;;;;;;;;;;;7.50;61.10;;;;;;5083578;28;20637;-70
2022/03/12 05:32:18;;;;;;;;;;;7.60;61.20;;;;;;5080780;28;19945;-70
2022/03/12 05:34:43;;;;;;;;;;;7.60;61.10;;;;;;5084368;28;20364;-70
2022/03/12 05:37:09;;;;;;;;;;;7.60;61.10;;;;;;5084032;28;20061;-70
2022/03/12 05:39:38;;;;;;;;;;;7.60;61.20;;;;;;5084719;28;19912;-70
2022/03/12 05:42:05;;;;;;;;;;;7.50;61.20;;;;;;5081053;28;20304;-70
2022/03/12 05:44:34;;;;;;;;;;;7.50;61.20;;;;;;5082484;28;21996;-70
2022/03/12 05:47:01;;;;;;;;;;;7.50;61.20;;;;;;5081930;28;19923;-70
2022/03/12 05:49:26;;;;;;;;;;;7.60;61.30;;;;;;5086190;28;19919;-70
2022/03/12 05:51:52;;;;;;;;;;;7.50;61.20;;;;;;5079436;28;19916;-70
2022/03/12 05:54:17;;;;;;;;;;;7.50;61.90;;;;;;5083930;28;19916;-70
2022/03/12 05:56:43;;;;;;;;;;;7.50;61.40;;;;;;5081205;28;19924;-69
2022/03/12 05:59:09;;;;;;;;;;;7.50;61.40;;;;;;5084539;28;20625;-69
2022/03/12 06:01:35;;;;;;;;;;;7.50;61.50;;;;;;5083730;28;19912;-69
2022/03/12 06:04:00;;;;;;;;;;;7.50;61.60;;;;;;5084215;28;20404;-70
2022/03/12 06:06:29;;;;;;;;;;;7.50;61.60;;;;;;5083066;28;20381;-69
2022/03/12 06:08:58;;;;;;;;;;;7.50;61.60;;;;;;5082038;28;19963;-70
2022/03/12 06:11:25;;;;;;;;;;;7.50;61.60;;;;;;5085209;28;19912;-70
2022/03/12 06:13:58;;;;;;;;;;;7.40;61.50;;;;;;5082813;28;19955;-70
2022/03/12 06:16:24;;;;;;;;;;;7.50;61.80;;;;;;5071499;28;19919;-69
2022/03/12 06:18:52;;;;;;;;;;;7.40;61.60;;;;;;5080127;28;19943;-70
2022/03/12 06:21:18;;;;;;;;;;;7.40;61.70;;;;;;5081468;28;19912;-70
2022/03/12 06:23:43;;;;;;;;;;;7.50;61.70;;;;;;5080339;28;19923;-70
2022/03/12 06:26:14;;;;;;;;;;;7.40;61.60;;;;;;5084896;28;19995;-69
2022/03/12 06:28:41;;;;;;;;;;;7.50;61.80;;;;;;5078241;28;19915;-70
2022/03/12 06:31:06;;;;;;;;;;;7.40;61.60;;;;;;5085203;28;20498;-69
2022/03/12 06:33:32;;;;;;;;;;;7.40;61.70;;;;;;5081985;28;19916;-70
2022/03/12 06:35:59;;;;;;;;;;;7.40;61.80;;;;;;5068849;28;19978;-69
2022/03/12 06:38:26;;;;;;;;;;;7.40;61.80;;;;;;5082782;28;19927;-69
2022/03/12 06:40:54;;;;;;;;;;;7.40;61.80;;;;;;5082181;28;20407;-69
2022/03/12 06:43:19;;;;;;;;;;;7.40;61.80;;;;;;5081671;28;19926;-69
2022/03/12 06:45:46;;;;;;;;;;;7.40;61.90;;;;;;5082761;28;19916;-69
2022/03/12 06:48:12;;;;;;;;;;;7.50;61.90;;;;;;5084053;28;20414;-69
2022/03/12 06:50:37;;;;;;;;;;;7.50;61.90;;;;;;5082530;28;19920;-70
2022/03/12 06:53:03;;;;;;;;;;;7.40;61.90;;;;;;5085549;28;19923;-70
2022/03/12 06:55:28;;;;;;;;;;;7.40;61.90;;;;;;5077178;28;19916;-70
2022/03/12 06:57:54;;;;;;;;;;;7.40;61.90;;;;;;5070485;28;19920;-69
2022/03/12 07:00:27;;;;;;;;;;;7.50;61.90;;;;;;5081050;28;19913;-69
2022/03/12 07:02:53;;;;;;;;;;;7.40;61.80;;;;;;5085021;28;20027;-69
2022/03/12 07:05:19;;;;;;;;;;;7.50;62.00;;;;;;5082579;28;19923;-70
2022/03/12 07:07:44;;;;;;;;;;;7.50;61.90;;;;;;5067780;28;19916;-69
2022/03/12 07:10:10;;;;;;;;;;;7.50;62.10;;;;;;5078149;28;20551;-69
2022/03/12 07:12:36;;;;;;;;;;;7.50;61.90;;;;;;5085497;28;19915;-69
2022/03/12 07:15:01;;;;;;;;;;;7.50;62.00;;;;;;5085007;28;19964;-69
2022/03/12 07:17:27;;;;;;;;;;;7.50;62.10;;;;;;5087435;28;20298;-69
2022/03/12 07:19:52;;;;;;;;;;;7.60;62.10;;;;;;5081504;28;20292;-70
2022/03/12 07:22:18;;;;;;;;;;;7.60;62.00;;;;;;5065961;28;19926;-69
2022/03/12 07:24:43;;;;;;;;;;;7.60;62.00;;;;;;5083732;28;19919;-70
2022/03/12 07:27:09;;;;;;;;;;;7.60;62.10;;;;;;5083759;28;19977;-69
2022/03/12 07:29:35;;;;;;;;;;;7.60;62.70;;;;;;5087207;28;19919;-69
2022/03/12 07:32:01;;;;;;;;;;;7.60;62.10;;;;;;5084026;28;19916;-70
2022/03/12 07:34:27;;;;;;;;;;;7.70;62.20;;;;;;5088889;28;19908;-69
2022/03/12 07:36:53;;;;;;;;;;;7.60;62.10;;;;;;5080464;28;19955;-69
2022/03/12 07:39:20;;;;;;;;;;;7.70;62.20;;;;;;5083856;28;19948;-69
2022/03/12 07:41:45;;;;;;;;;;;7.70;62.30;;;;;;5084035;28;19916;-70
2022/03/12 07:44:11;;;;;;;;;;;7.70;62.20;;;;;;5086461;28;19954;-69
2022/03/12 07:46:36;;;;;;;;;;;7.70;62.20;;;;;;5082662;28;19920;-70
2022/03/12 07:49:03;;;;;;;;;;;7.70;62.30;;;;;;5086666;28;19912;-69
2022/03/12 07:51:29;;;;;;;;;;;7.70;62.40;;;;;;5086316;28;20427;-69
2022/03/12 07:53:55;;;;;;;;;;;7.80;62.30;;;;;;5087227;28;19950;-70
2022/03/12 07:56:21;;;;;;;;;;;7.80;62.30;;;;;;5085346;28;19928;-69
2022/03/12 07:58:47;;;;;;;;;;;7.80;62.40;;;;;;5088038;28;19912;-69
2022/03/12 08:01:12;;;;;;;;;;;7.90;62.40;;;;;;5085919;28;19912;-69
2022/03/12 08:03:38;;;;;;;;;;;7.90;62.00;;;;;;5083678;28;20036;-69
2022/03/12 08:06:08;;;;;;;;;;;7.90;62.10;;;;;;5069563;28;20326;-70
2022/03/12 08:08:34;;;;;;;;;;;8.00;62.10;;;;;;5083582;28;19919;-69
2022/03/12 08:13:44;;;;;;;;;;;8.00;62.10;;;;;;5084078;28;19919;-69
2022/03/12 08:16:12;;;;;;;;;;;8.10;62.10;;;;;;5066176;28;19913;-69
2022/03/12 08:18:38;;;;;;;;;;;8.10;62.10;;;;;;5084303;28;19916;-69
2022/03/12 08:21:03;;;;;;;;;;;8.20;62.00;;;;;;5086110;28;19919;-69
2022/03/12 08:23:28;;;;;;;;;;;8.30;62.10;;;;;;5064471;28;19920;-69
2022/03/12 08:25:54;;;;;;;;;;;8.30;62.00;;;;;;5087291;28;20002;-70
2022/03/12 08:28:20;;;;;;;;;;;8.40;61.90;;;;;;5083407;28;19916;-69
2022/03/12 08:30:46;;;;;;;;;;;8.40;61.90;;;;;;5068849;28;20044;-69
2022/03/12 08:33:12;;;;;;;;;;;8.50;61.90;;;;;;5067358;28;19923;-70
2022/03/12 08:35:38;;;;;;;;;;;8.50;62.00;;;;;;5086419;28;20254;-69
2022/03/12 08:38:04;;;;;;;;;;;8.70;62.00;;;;;;5070172;28;19930;-69
2022/03/12 08:40:29;;;;;;;;;;;8.70;62.10;;;;;;5067805;28;19995;-70
2022/03/12 08:42:55;;;;;;;;;;;8.80;62.00;;;;;;5082520;28;19960;-70
2022/03/12 08:45:20;;;;;;;;;;;8.80;62.20;;;;;;5069912;28;19908;-70
2022/03/12 08:47:46;;;;;;;;;;;8.90;62.40;;;;;;5084222;28;19908;-70
2022/03/12 08:50:12;;;;;;;;;;;9.00;62.30;;;;;;5083971;28;19918;-69
2022/03/12 08:52:38;;;;;;;;;;;9.00;62.10;;;;;;5085351;28;20011;-69
2022/03/12 08:55:05;;;;;;;;;;;9.10;62.20;;;;;;5064715;28;20032;-70
2022/03/12 08:57:30;;;;;;;;;;;9.20;62.20;;;;;;5085117;28;20032;-69
2022/03/12 08:59:56;;;;;;;;;;;9.20;62.30;;;;;;5080542;28;19962;-69
2022/03/12 09:02:23;;;;;;;;;;;9.30;62.10;;;;;;5082089;28;19908;-69
2022/03/12 09:04:49;;;;;;;;;;;9.40;62.10;;;;;;5082163;28;19960;-70
2022/03/12 09:07:14;;;;;;;;;;;9.40;62.10;;;;;;5086379;28;20360;-70
2022/03/12 09:09:40;;;;;;;;;;;9.50;62.00;;;;;;5083026;28;20606;-72
2022/03/12 09:12:05;;;;;;;;;;;9.50;61.90;;;;;;5084731;28;19911;-71
2022/03/12 09:14:34;;;;;;;;;;;9.60;61.80;;;;;;5081109;28;19920;-71
2022/03/12 09:17:04;;;;;;;;;;;9.60;61.90;;;;;;5082578;28;19920;-71
2022/03/12 09:19:29;;;;;;;;;;;9.60;61.80;;;;;;5081788;28;19919;-71
2022/03/12 09:21:58;;;;;;;;;;;9.70;61.70;;;;;;5085053;28;19916;-71
2022/03/12 09:24:23;;;;;;;;;;;9.70;61.70;;;;;;5084425;28;19919;-71
2022/03/12 09:26:49;;;;;;;;;;;9.80;61.80;;;;;;5085573;28;19916;-71
2022/03/12 09:29:15;;;;;;;;;;;9.80;61.80;;;;;;5082531;28;20372;-71
2022/03/12 09:31:40;;;;;;;;;;;9.80;61.80;;;;;;5081122;28;19916;-71
2022/03/12 09:34:06;;;;;;;;;;;9.90;61.80;;;;;;5083055;28;19915;-71
2022/03/12 09:36:32;;;;;;;;;;;9.90;61.50;;;;;;5083850;28;20364;-71
2022/03/12 09:38:58;;;;;;;;;;;9.90;61.80;;;;;;5086117;28;20473;-71
2022/03/12 09:41:24;;;;;;;;;;;10.00;61.80;;;;;;5083043;28;19943;-71
2022/03/12 09:43:50;;;;;;;;;;;10.00;61.90;;;;;;5070777;28;20433;-71
2022/03/12 09:46:16;;;;;;;;;;;10.00;62.00;;;;;;5082075;28;19923;-71
2022/03/12 09:48:41;;;;;;;;;;;10.10;61.90;;;;;;5085644;28;19912;-71
2022/03/12 09:51:07;;;;;;;;;;;10.10;62.00;;;;;;5083686;28;19997;-71
2022/03/12 09:53:34;;;;;;;;;;;10.10;61.90;;;;;;5070806;28;20641;-71
2022/03/12 09:55:59;;;;;;;;;;;10.20;61.90;;;;;;5078650;28;19943;-71
2022/03/12 09:58:25;;;;;;;;;;;10.20;62.00;;;;;;5084835;28;20290;-71
2022/03/12 10:00:50;;;;;;;;;;;10.20;62.00;;;;;;5083512;28;20466;-71
2022/03/12 10:03:16;;;;;;;;;;;10.30;62.70;;;;;;5082952;28;19939;-71
2022/03/12 10:05:41;;;;;;;;;;;10.30;62.00;;;;;;5084800;28;19912;-71
2022/03/12 10:08:07;;;;;;;;;;;10.30;62.00;;;;;;5066037;28;20302;-71
2022/03/12 10:10:33;;;;;;;;;;;10.40;62.10;;;;;;5084466;28;20017;-71
2022/03/12 10:12:58;;;;;;;;;;;10.40;61.90;;;;;;5082080;28;19923;-71
2022/03/12 10:15:24;;;;;;;;;;;10.40;62.00;;;;;;5083887;28;20324;-71
2022/03/12 10:17:49;;;;;;;;;;;10.50;61.90;;;;;;5079896;28;19920;-71
2022/03/12 10:20:15;;;;;;;;;;;10.50;61.90;;;;;;5083740;28;19961;-71
2022/03/12 10:22:41;;;;;;;;;;;10.60;61.90;;;;;;5065058;28;19969;-71
2022/03/12 10:25:07;;;;;;;;;;;10.60;61.70;;;;;;5081921;28;20269;-72
2022/03/12 10:27:33;;;;;;;;;;;10.70;61.90;;;;;;5078226;28;19912;-71
2022/03/12 10:29:59;;;;;;;;;;;10.70;61.80;;;;;;5084193;28;19912;-71
2022/03/12 10:32:25;;;;;;;;;;;10.80;61.80;;;;;;5081929;28;19923;-71
2022/03/12 10:34:52;;;;;;;;;;;10.90;61.70;;;;;;5083425;28;20546;-71
2022/03/12 10:37:19;;;;;;;;;;;10.90;61.70;;;;;;5080989;28;20344;-71
2022/03/12 10:39:45;;;;;;;;;;;11.00;61.60;;;;;;5081977;28;20218;-71
2022/03/12 10:42:12;;;;;;;;;;;11.00;61.70;;;;;;5085110;28;19909;-71
2022/03/12 10:44:39;;;;;;;;;;;11.10;61.90;;;;;;5069422;28;19966;-72
2022/03/12 10:47:20;;;;;;;;;;;11.10;61.70;;;;;;5085230;28;21622;-71
2022/03/12 10:49:58;;;;;;;;;;;11.20;61.70;;;;;;5083807;28;19927;-71
2022/03/12 10:52:30;;;;;;;;;;;11.20;61.70;;;;;;5088549;28;19916;-71
2022/03/12 10:54:56;;;;;;;;;;;11.30;61.90;;;;;;5083843;28;19948;-69
2022/03/12 10:57:21;;;;;;;;;;;11.30;61.80;;;;;;5085229;28;20020;-70
2022/03/12 10:59:51;;;;;;;;;;;11.30;61.70;;;;;;5086293;28;19916;-69
2022/03/12 11:02:17;;;;;;;;;;;11.40;61.90;;;;;;5088846;28;19908;-69
2022/03/12 11:04:42;;;;;;;;;;;11.50;61.70;;;;;;5086526;28;19920;-69
2022/03/12 11:07:21;;;;;;;;;;;11.50;61.60;;;;;;5087390;28;19958;-69
2022/03/12 11:09:47;;;;;;;;;;;11.60;61.50;;;;;;5078485;28;20135;-69
2022/03/12 11:12:30;;;;;;;;;;;11.60;61.50;;;;;;5071764;28;19916;-69
2022/03/12 11:15:02;;;;;;;;;;;11.60;61.60;;;;;;5084619;28;19919;-69
2022/03/12 11:17:27;;;;;;;;;;;11.70;62.10;;;;;;5087566;28;19920;-69
2022/03/12 11:19:57;;;;;;;;;;;11.80;61.60;;;;;;5084024;28;19914;-70
2022/03/12 11:22:22;;;;;;;;;;;11.80;61.60;;;;;;5068983;28;20356;-70
2022/03/12 11:24:48;;;;;;;;;;;11.90;61.40;;;;;;5085218;28;19920;-70
2022/03/12 11:27:18;;;;;;;;;;;12.00;61.20;;;;;;5088230;28;19919;-70
2022/03/12 11:29:54;;;;;;;;;;;12.00;61.70;;;;;;5083670;28;19923;-70
2022/03/12 11:32:20;;;;;;;;;;;12.10;61.20;;;;;;5086032;28;19912;-69
2022/03/12 11:34:45;;;;;;;;;;;12.20;61.10;;;;;;5072508;28;19920;-70
2022/03/12 11:37:14;;;;;;;;;;;12.30;60.70;;;;;;5087916;28;19916;-70
2022/03/12 11:39:42;;;;;;;;;;;12.40;60.80;;;;;;5068594;28;19918;-70
2022/03/12 11:42:11;;;;;;;;;;;12.50;61.00;;;;;;5084724;28;19913;-70
2022/03/12 11:44:38;;;;;;;;;;;12.50;60.70;;;;;;5087971;28;19920;-70
2022/03/12 11:47:05;;;;;;;;;;;12.60;61.00;;;;;;5082197;28;19916;-70
2022/03/12 11:49:30;;;;;;;;;;;12.60;61.30;;;;;;5085955;28;19912;-70
2022/03/12 11:51:56;;;;;;;;;;;12.70;60.90;;;;;;5065086;28;19969;-70
2022/03/12 11:54:22;;;;;;;;;;;12.80;61.50;;;;;;5066286;28;19947;-70
2022/03/12 11:56:48;;;;;;;;;;;12.80;61.00;;;;;;5079718;28;19974;-70
2022/03/12 11:59:14;;;;;;;;;;;12.90;61.50;;;;;;5082608;28;19916;-71
2022/03/12 12:01:40;;;;;;;;;;;12.90;61.10;;;;;;5083819;28;19973;-70
2022/03/12 12:04:07;;;;;;;;;;;13.00;61.10;;;;;;5084881;28;19916;-70
2022/03/12 12:06:34;;;;;;;;;;;13.10;61.00;;;;;;5083797;28;19971;-70
2022/03/12 12:09:02;;;;;;;;;;;13.10;61.10;;;;;;5086380;28;20352;-70
2022/03/12 12:11:30;;;;;;;;;;;13.10;61.20;;;;;;5083319;28;20511;-70
2022/03/12 12:13:56;;;;;;;;;;;13.10;61.10;;;;;;5083796;28;20050;-70
2022/03/12 12:16:22;;;;;;;;;;;13.10;61.10;;;;;;5084134;28;19912;-70
2022/03/12 12:18:48;;;;;;;;;;;13.10;61.10;;;;;;5082402;28;19912;-70
2022/03/12 12:21:17;;;;;;;;;;;13.20;61.40;;;;;;5085361;28;19982;-70
2022/03/12 12:23:42;;;;;;;;;;;13.20;61.20;;;;;;5084461;28;20007;-70
2022/03/12 12:26:09;;;;;;;;;;;13.30;61.30;;;;;;5086847;28;20504;-70
2022/03/12 12:28:48;;;;;;;;;;;13.30;61.10;;;;;;5085383;28;20475;-70
2022/03/12 12:31:24;;;;;;;;;;;13.30;61.20;;;;;;5085079;28;19919;-70
2022/03/12 12:33:49;;;;;;;;;;;13.30;61.10;;;;;;5082941;28;19923;-71
2022/03/12 12:36:16;;;;;;;;;;;13.40;61.20;;;;;;5085820;28;19912;-70
2022/03/12 12:39:04;;;;;;;;;;;13.40;61.10;;;;;;5082890;28;19916;-71
2022/03/12 12:41:49;;;;;;;;;;;13.40;61.20;;;;;;5056309;28;19927;-70
2022/03/12 12:44:14;;;;;;;;;;;13.40;61.20;;;;;;5081346;28;19973;-71
2022/03/12 12:46:40;;;;;;;;;;;13.50;61.30;;;;;;5084704;28;20003;-71
2022/03/12 12:49:06;;;;;;;;;;;13.50;61.30;;;;;;5081773;28;20325;-71
2022/03/12 12:51:47;;;;;;;;;;;13.50;61.30;;;;;;5087679;28;19924;-70
2022/03/12 12:54:12;;;;;;;;;;;13.50;62.00;;;;;;5083924;28;19943;-71
2022/03/12 12:56:40;;;;;;;;;;;13.50;61.50;;;;;;5085417;28;20372;-71
2022/03/12 12:59:08;;;;;;;;;;;13.50;61.50;;;;;;5083262;28;19929;-71
2022/03/12 13:01:45;;;;;;;;;;;13.50;61.50;;;;;;5073029;28;19912;-71
2022/03/12 13:04:11;;;;;;;;;;;13.50;61.40;;;;;;5082360;28;19916;-71
2022/03/12 13:06:36;;;;;;;;;;;13.60;61.40;;;;;;5086785;28;19966;-70
2022/03/12 13:09:07;;;;;;;;;;;13.60;61.50;;;;;;5083117;28;20692;-71
2022/03/12 13:11:33;;;;;;;;;;;13.60;61.40;;;;;;5072155;28;19955;-70
2022/03/12 13:14:06;;;;;;;;;;;13.60;61.50;;;;;;5080100;28;20603;-71
2022/03/12 13:17:07;;;;;;;;;;;13.60;61.50;;;;;;5084297;28;19969;-70
2022/03/12 13:19:35;;;;;;;;;;;13.60;61.60;;;;;;5004283;28;19917;-71
2022/03/12 13:22:02;;;;;;;;;;;13.60;61.60;;;;;;5054781;28;19995;-71
2022/03/12 13:24:27;;;;;;;;;;;13.60;61.60;;;;;;5081952;28;19924;-71
2022/03/12 13:26:53;;;;;;;;;;;13.60;61.60;;;;;;5069968;28;19953;-71
2022/03/12 13:29:21;;;;;;;;;;;13.60;61.70;;;;;;5081614;28;20611;-70
2022/03/12 13:31:47;;;;;;;;;;;13.60;61.60;;;;;;5082765;28;19934;-71
2022/03/12 13:34:15;;;;;;;;;;;13.60;61.70;;;;;;5082751;28;19912;-71
2022/03/12 13:36:40;;;;;;;;;;;13.70;61.80;;;;;;5083214;28;20031;-71
2022/03/12 13:39:06;;;;;;;;;;;13.60;61.80;;;;;;5081707;28;19995;-71
2022/03/12 13:41:32;;;;;;;;;;;13.60;61.80;;;;;;5082517;28;19908;-71
2022/03/12 13:43:58;;;;;;;;;;;13.60;62.00;;;;;;5086239;28;19924;-71
2022/03/12 13:46:25;;;;;;;;;;;13.70;61.90;;;;;;5082543;28;19999;-70
2022/03/12 13:49:02;;;;;;;;;;;13.60;61.90;;;;;;5068364;28;19912;-71
2022/03/12 13:51:28;;;;;;;;;;;13.70;62.00;;;;;;5082255;28;19920;-71
2022/03/12 13:53:56;;;;;;;;;;;13.70;62.00;;;;;;5083980;28;19958;-71
2022/03/12 13:56:24;;;;;;;;;;;13.70;62.00;;;;;;5083520;28;20276;-71
2022/03/12 13:58:50;;;;;;;;;;;13.70;61.90;;;;;;5084579;28;20424;-70
2022/03/12 14:01:29;;;;;;;;;;;13.70;62.00;;;;;;5070940;28;19916;-71
2022/03/12 14:03:54;;;;;;;;;;;13.70;62.00;;;;;;5067357;28;19962;-71
2022/03/12 14:06:30;;;;;;;;;;;13.70;61.90;;;;;;5080829;28;20013;-71
2022/03/12 14:08:56;;;;;;;;;;;13.80;62.00;;;;;;5066542;28;19916;-71
2022/03/12 14:11:29;;;;;;;;;;;13.70;62.10;;;;;;5081395;28;19916;-71
2022/03/12 14:13:57;;;;;;;;;;;13.70;62.00;;;;;;5079417;28;20626;-71
2022/03/12 14:16:25;;;;;;;;;;;13.70;62.20;;;;;;5077657;28;20399;-71
2022/03/12 14:18:54;;;;;;;;;;;13.70;62.30;;;;;;5082269;28;19919;-71
2022/03/12 14:21:35;;;;;;;;;;;13.70;62.40;;;;;;5068479;28;19958;-71
2022/03/12 14:24:34;;;;;;;;;;;13.70;62.30;;;;;;5081730;28;19922;-71
2022/03/12 14:27:01;;;;;;;;;;;13.70;62.40;;;;;;5023566;28;20483;-71
2022/03/12 14:29:28;;;;;;;;;;;13.70;62.40;;;;;;5083045;28;19930;-70